sensor_id;sensor_type;location;lat;lon;timestamp;P1;P2;P0
77974;PMS5003;67164;51.202;0.278;2023-06-22T00:00:12;9;9;
77974;PMS5003;67164;51.202;0.278;2023-06-22T00:02:38;12;9;
77974;PMS5003;67164;51.202;0.278;2023-06-22T00:05:03;12;12;
77974;PMS5003;67164;51.202;0.278;2023-06-22T00:07:28;9;9;
77974;PMS5003;67164;51.202;0.278;2023-06-22T00:09:54;13;10;
77974;PMS5003;67164;51.202;0.278;2023-06-22T00:12:20;9;9;
77974;PMS5003;67164;51.202;0.278;2023-06-22T00:14:46;9;9;
77974;PMS5003;67164;51.202;0.278;2023-06-22T00:17:11;12;11;
77974;PMS5003;67164;51.202;0.278;2023-06-22T00:19:37;12;12;
77974;PMS5003;67164;51.202;0.278;2023-06-22T00:22:03;11;8;
77974;PMS5003;67164;51.202;0.278;2023-06-22T00:24:29;12;11;
77974;PMS5003;67164;51.202;0.278;2023-06-22T00:26:54;9;9;
77974;PMS5003;67164;51.202;0.278;2023-06-22T00:29:20;10;9;
77974;PMS5003;67164;51.202;0.278;2023-06-22T00:31:46;12;10;
77974;PMS5003;67164;51.202;0.278;2023-06-22T00:34:12;13;11;
77974;PMS5003;67164;51.202;0.278;2023-06-22T00:36:37;12;12;
77974;PMS5003;67164;51.202;0.278;2023-06-22T00:39:03;11;9;
77974;PMS5003;67164;51.202;0.278;2023-06-22T00:41:29;13;10;
77974;PMS5003;67164;51.202;0.278;2023-06-22T00:43:55;12;10;
77974;PMS5003;67164;51.202;0.278;2023-06-22T00:46:20;14;13;
77974;PMS5003;67164;51.202;0.278;2023-06-22T00:48:46;10;10;
77974;PMS5003;67164;51.202;0.278;2023-06-22T00:51:12;11;10;
77974;PMS5003;67164;51.202;0.278;2023-06-22T00:53:37;14;12;
77974;PMS5003;67164;51.202;0.278;2023-06-22T00:56:04;9;9;
77974;PMS5003;67164;51.202;0.278;2023-06-22T00:58:29;11;11;
77974;PMS5003;67164;51.202;0.278;2023-06-22T01:00:55;11;9;
77974;PMS5003;67164;51.202;0.278;2023-06-22T01:03:21;10;10;
77974;PMS5003;67164;51.202;0.278;2023-06-22T01:05:46;12;9;
77974;PMS5003;67164;51.202;0.278;2023-06-22T01:08:16;12;12;
77974;PMS5003;67164;51.202;0.278;2023-06-22T01:10:40;10;10;
77974;PMS5003;67164;51.202;0.278;2023-06-22T01:13:05;10;10;
77974;PMS5003;67164;51.202;0.278;2023-06-22T01:15:30;13;9;
77974;PMS5003;67164;51.202;0.278;2023-06-22T01:17:56;13;11;
77974;PMS5003;67164;51.202;0.278;2023-06-22T01:20:21;9;9;
77974;PMS5003;67164;51.202;0.278;2023-06-22T01:22:50;11;9;
77974;PMS5003;67164;51.202;0.278;2023-06-22T01:25:13;8;8;
77974;PMS5003;67164;51.202;0.278;2023-06-22T01:27:40;11;10;
77974;PMS5003;67164;51.202;0.278;2023-06-22T01:30:04;8;8;
77974;PMS5003;67164;51.202;0.278;2023-06-22T01:32:30;9;9;
77974;PMS5003;67164;51.202;0.278;2023-06-22T01:34:55;10;10;
77974;PMS5003;67164;51.202;0.278;2023-06-22T01:37:21;9;8;
77974;PMS5003;67164;51.202;0.278;2023-06-22T01:39:47;12;11;
77974;PMS5003;67164;51.202;0.278;2023-06-22T01:42:12;16;11;
77974;PMS5003;67164;51.202;0.278;2023-06-22T01:44:38;10;10;
77974;PMS5003;67164;51.202;0.278;2023-06-22T01:47:04;10;10;
77974;PMS5003;67164;51.202;0.278;2023-06-22T01:49:29;10;10;
77974;PMS5003;67164;51.202;0.278;2023-06-22T01:51:55;11;10;
77974;PMS5003;67164;51.202;0.278;2023-06-22T01:54:21;10;10;
77974;PMS5003;67164;51.202;0.278;2023-06-22T01:56:46;12;11;
77974;PMS5003;67164;51.202;0.278;2023-06-22T01:59:14;11;11;
77974;PMS5003;67164;51.202;0.278;2023-06-22T02:01:40;12;11;
77974;PMS5003;67164;51.202;0.278;2023-06-22T02:04:04;10;10;
77974;PMS5003;67164;51.202;0.278;2023-06-22T02:06:29;12;9;
77974;PMS5003;67164;51.202;0.278;2023-06-22T02:08:57;11;11;
77974;PMS5003;67164;51.202;0.278;2023-06-22T02:11:20;15;14;
77974;PMS5003;67164;51.202;0.278;2023-06-22T02:13:45;12;12;
77974;PMS5003;67164;51.202;0.278;2023-06-22T02:16:11;10;10;
77974;PMS5003;67164;51.202;0.278;2023-06-22T02:18:36;11;11;
77974;PMS5003;67164;51.202;0.278;2023-06-22T02:21:02;12;11;
77974;PMS5003;67164;51.202;0.278;2023-06-22T02:23:27;12;12;
77974;PMS5003;67164;51.202;0.278;2023-06-22T02:25:53;8;8;
77974;PMS5003;67164;51.202;0.278;2023-06-22T02:28:19;9;9;
77974;PMS5003;67164;51.202;0.278;2023-06-22T02:30:45;13;12;
77974;PMS5003;67164;51.202;0.278;2023-06-22T02:33:10;10;10;
77974;PMS5003;67164;51.202;0.278;2023-06-22T02:35:36;15;14;
77974;PMS5003;67164;51.202;0.278;2023-06-22T02:38:02;10;10;
77974;PMS5003;67164;51.202;0.278;2023-06-22T02:40:27;10;10;
77974;PMS5003;67164;51.202;0.278;2023-06-22T02:42:53;10;10;
77974;PMS5003;67164;51.202;0.278;2023-06-22T02:45:19;11;11;
77974;PMS5003;67164;51.202;0.278;2023-06-22T02:47:45;10;10;
77974;PMS5003;67164;51.202;0.278;2023-06-22T02:50:11;10;9;
77974;PMS5003;67164;51.202;0.278;2023-06-22T02:52:36;13;10;
77974;PMS5003;67164;51.202;0.278;2023-06-22T02:55:03;13;11;
77974;PMS5003;67164;51.202;0.278;2023-06-22T02:57:28;10;9;
77974;PMS5003;67164;51.202;0.278;2023-06-22T02:59:54;13;11;
77974;PMS5003;67164;51.202;0.278;2023-06-22T03:02:19;11;11;
77974;PMS5003;67164;51.202;0.278;2023-06-22T03:04:45;10;10;
77974;PMS5003;67164;51.202;0.278;2023-06-22T03:07:11;9;9;
77974;PMS5003;67164;51.202;0.278;2023-06-22T03:09:36;9;9;
77974;PMS5003;67164;51.202;0.278;2023-06-22T03:12:02;12;12;
77974;PMS5003;67164;51.202;0.278;2023-06-22T03:14:27;10;10;
77974;PMS5003;67164;51.202;0.278;2023-06-22T03:16:53;10;10;
77974;PMS5003;67164;51.202;0.278;2023-06-22T03:19:19;12;12;
77974;PMS5003;67164;51.202;0.278;2023-06-22T03:21:45;9;9;
77974;PMS5003;67164;51.202;0.278;2023-06-22T03:24:10;9;8;
77974;PMS5003;67164;51.202;0.278;2023-06-22T03:26:36;11;10;
77974;PMS5003;67164;51.202;0.278;2023-06-22T03:29:02;11;10;
77974;PMS5003;67164;51.202;0.278;2023-06-22T03:31:27;11;11;
77974;PMS5003;67164;51.202;0.278;2023-06-22T03:33:53;10;8;
77974;PMS5003;67164;51.202;0.278;2023-06-22T03:36:19;13;10;
77974;PMS5003;67164;51.202;0.278;2023-06-22T03:38:44;9;9;
77974;PMS5003;67164;51.202;0.278;2023-06-22T03:41:10;10;10;
77974;PMS5003;67164;51.202;0.278;2023-06-22T03:43:36;11;10;
77974;PMS5003;67164;51.202;0.278;2023-06-22T03:46:02;12;11;
77974;PMS5003;67164;51.202;0.278;2023-06-22T03:48:28;8;8;
77974;PMS5003;67164;51.202;0.278;2023-06-22T03:50:53;9;9;
77974;PMS5003;67164;51.202;0.278;2023-06-22T03:53:19;12;11;
77974;PMS5003;67164;51.202;0.278;2023-06-22T03:55:48;9;9;
77974;PMS5003;67164;51.202;0.278;2023-06-22T03:58:10;8;7;
77974;PMS5003;67164;51.202;0.278;2023-06-22T04:00:36;10;10;
77974;PMS5003;67164;51.202;0.278;2023-06-22T04:03:02;12;9;
77974;PMS5003;67164;51.202;0.278;2023-06-22T04:05:28;10;9;
77974;PMS5003;67164;51.202;0.278;2023-06-22T04:07:54;9;9;
77974;PMS5003;67164;51.202;0.278;2023-06-22T04:10:19;8;8;
77974;PMS5003;67164;51.202;0.278;2023-06-22T04:12:45;8;8;
77974;PMS5003;67164;51.202;0.278;2023-06-22T04:15:11;8;8;
77974;PMS5003;67164;51.202;0.278;2023-06-22T04:17:37;8;8;
77974;PMS5003;67164;51.202;0.278;2023-06-22T04:20:03;8;7;
77974;PMS5003;67164;51.202;0.278;2023-06-22T04:22:28;9;9;
77974;PMS5003;67164;51.202;0.278;2023-06-22T04:24:54;8;8;
77974;PMS5003;67164;51.202;0.278;2023-06-22T04:27:20;5;5;
77974;PMS5003;67164;51.202;0.278;2023-06-22T04:29:45;7;7;
77974;PMS5003;67164;51.202;0.278;2023-06-22T04:32:11;6;6;
77974;PMS5003;67164;51.202;0.278;2023-06-22T04:34:37;9;8;
77974;PMS5003;67164;51.202;0.278;2023-06-22T04:37:03;7;6;
77974;PMS5003;67164;51.202;0.278;2023-06-22T04:39:28;9;9;
77974;PMS5003;67164;51.202;0.278;2023-06-22T04:41:54;9;7;
77974;PMS5003;67164;51.202;0.278;2023-06-22T04:44:20;6;6;
77974;PMS5003;67164;51.202;0.278;2023-06-22T04:46:46;6;6;
77974;PMS5003;67164;51.202;0.278;2023-06-22T04:49:12;8;8;
77974;PMS5003;67164;51.202;0.278;2023-06-22T04:51:39;9;9;
77974;PMS5003;67164;51.202;0.278;2023-06-22T04:54:03;8;6;
77974;PMS5003;67164;51.202;0.278;2023-06-22T04:56:29;7;6;
77974;PMS5003;67164;51.202;0.278;2023-06-22T04:58:54;7;7;
77974;PMS5003;67164;51.202;0.278;2023-06-22T05:01:20;8;8;
77974;PMS5003;67164;51.202;0.278;2023-06-22T05:03:46;6;6;
77974;PMS5003;67164;51.202;0.278;2023-06-22T05:06:12;7;7;
77974;PMS5003;67164;51.202;0.278;2023-06-22T05:08:37;9;9;
77974;PMS5003;67164;51.202;0.278;2023-06-22T05:11:03;6;6;
77974;PMS5003;67164;51.202;0.278;2023-06-22T05:13:29;7;6;
77974;PMS5003;67164;51.202;0.278;2023-06-22T05:15:55;7;7;
77974;PMS5003;67164;51.202;0.278;2023-06-22T05:18:21;7;6;
77974;PMS5003;67164;51.202;0.278;2023-06-22T05:20:46;6;6;
77974;PMS5003;67164;51.202;0.278;2023-06-22T05:23:12;8;8;
77974;PMS5003;67164;51.202;0.278;2023-06-22T05:25:38;6;6;
77974;PMS5003;67164;51.202;0.278;2023-06-22T05:28:03;9;7;
77974;PMS5003;67164;51.202;0.278;2023-06-22T05:30:29;7;7;
77974;PMS5003;67164;51.202;0.278;2023-06-22T05:32:55;5;5;
77974;PMS5003;67164;51.202;0.278;2023-06-22T05:35:21;7;7;
77974;PMS5003;67164;51.202;0.278;2023-06-22T05:37:46;6;6;
77974;PMS5003;67164;51.202;0.278;2023-06-22T05:40:12;8;8;
77974;PMS5003;67164;51.202;0.278;2023-06-22T05:42:37;9;8;
77974;PMS5003;67164;51.202;0.278;2023-06-22T05:45:03;6;6;
77974;PMS5003;67164;51.202;0.278;2023-06-22T05:47:28;7;7;
77974;PMS5003;67164;51.202;0.278;2023-06-22T05:49:54;7;7;
77974;PMS5003;67164;51.202;0.278;2023-06-22T05:52:20;7;7;
77974;PMS5003;67164;51.202;0.278;2023-06-22T05:54:46;6;6;
77974;PMS5003;67164;51.202;0.278;2023-06-22T05:57:11;6;6;
77974;PMS5003;67164;51.202;0.278;2023-06-22T05:59:37;7;7;
77974;PMS5003;67164;51.202;0.278;2023-06-22T06:02:03;7;7;
77974;PMS5003;67164;51.202;0.278;2023-06-22T06:04:29;6;6;
77974;PMS5003;67164;51.202;0.278;2023-06-22T06:06:55;8;7;
77974;PMS5003;67164;51.202;0.278;2023-06-22T06:09:21;7;7;
77974;PMS5003;67164;51.202;0.278;2023-06-22T06:11:46;6;6;
77974;PMS5003;67164;51.202;0.278;2023-06-22T06:14:12;7;7;
77974;PMS5003;67164;51.202;0.278;2023-06-22T06:16:38;6;4;
77974;PMS5003;67164;51.202;0.278;2023-06-22T06:19:04;8;8;
77974;PMS5003;67164;51.202;0.278;2023-06-22T06:21:29;5;5;
77974;PMS5003;67164;51.202;0.278;2023-06-22T06:23:55;6;6;
77974;PMS5003;67164;51.202;0.278;2023-06-22T06:26:22;10;9;
77974;PMS5003;67164;51.202;0.278;2023-06-22T06:28:47;8;7;
77974;PMS5003;67164;51.202;0.278;2023-06-22T06:31:13;8;8;
77974;PMS5003;67164;51.202;0.278;2023-06-22T06:33:38;8;7;
77974;PMS5003;67164;51.202;0.278;2023-06-22T06:36:04;8;6;
77974;PMS5003;67164;51.202;0.278;2023-06-22T06:38:30;7;7;
77974;PMS5003;67164;51.202;0.278;2023-06-22T06:40:57;10;9;
77974;PMS5003;67164;51.202;0.278;2023-06-22T06:43:21;34;32;
77974;PMS5003;67164;51.202;0.278;2023-06-22T06:45:46;129;118;
77974;PMS5003;67164;51.202;0.278;2023-06-22T06:48:12;95;86;
77974;PMS5003;67164;51.202;0.278;2023-06-22T06:50:38;121;110;
77974;PMS5003;67164;51.202;0.278;2023-06-22T06:53:03;133;122;
77974;PMS5003;67164;51.202;0.278;2023-06-22T06:55:28;144;130;
77974;PMS5003;67164;51.202;0.278;2023-06-22T06:57:53;404;341;
77974;PMS5003;67164;51.202;0.278;2023-06-22T07:00:19;392;319;
77974;PMS5003;67164;51.202;0.278;2023-06-22T07:02:45;348;294;
77974;PMS5003;67164;51.202;0.278;2023-06-22T07:05:10;226;198;
77974;PMS5003;67164;51.202;0.278;2023-06-22T07:07:35;202;179;
77974;PMS5003;67164;51.202;0.278;2023-06-22T07:10:01;214;183;
77974;PMS5003;67164;51.202;0.278;2023-06-22T07:12:26;204;174;
77974;PMS5003;67164;51.202;0.278;2023-06-22T07:14:52;201;159;
77974;PMS5003;67164;51.202;0.278;2023-06-22T07:17:22;172;147;
77974;PMS5003;67164;51.202;0.278;2023-06-22T07:19:47;161;148;
77974;PMS5003;67164;51.202;0.278;2023-06-22T07:22:08;152;137;
77974;PMS5003;67164;51.202;0.278;2023-06-22T07:24:40;150;133;
77974;PMS5003;67164;51.202;0.278;2023-06-22T07:26:59;156;130;
77974;PMS5003;67164;51.202;0.278;2023-06-22T07:29:24;141;119;
77974;PMS5003;67164;51.202;0.278;2023-06-22T07:31:49;129;112;
77974;PMS5003;67164;51.202;0.278;2023-06-22T07:34:14;119;103;
77974;PMS5003;67164;51.202;0.278;2023-06-22T07:36:40;108;99;
77974;PMS5003;67164;51.202;0.278;2023-06-22T07:39:05;108;92;
77974;PMS5003;67164;51.202;0.278;2023-06-22T07:41:30;105;90;
77974;PMS5003;67164;51.202;0.278;2023-06-22T07:46:22;105;95;
77974;PMS5003;67164;51.202;0.278;2023-06-22T07:48:47;109;96;
77974;PMS5003;67164;51.202;0.278;2023-06-22T07:51:12;99;88;
77974;PMS5003;67164;51.202;0.278;2023-06-22T07:53:37;96;84;
77974;PMS5003;67164;51.202;0.278;2023-06-22T07:56:03;98;82;
77974;PMS5003;67164;51.202;0.278;2023-06-22T07:58:28;81;70;
77974;PMS5003;67164;51.202;0.278;2023-06-22T08:00:53;84;73;
77974;PMS5003;67164;51.202;0.278;2023-06-22T08:03:19;80;67;
77974;PMS5003;67164;51.202;0.278;2023-06-22T08:05:45;76;69;
77974;PMS5003;67164;51.202;0.278;2023-06-22T08:08:10;67;59;
77974;PMS5003;67164;51.202;0.278;2023-06-22T08:10:36;67;59;
77974;PMS5003;67164;51.202;0.278;2023-06-22T08:13:01;52;45;
77974;PMS5003;67164;51.202;0.278;2023-06-22T08:15:26;48;45;
77974;PMS5003;67164;51.202;0.278;2023-06-22T08:17:56;51;45;
77974;PMS5003;67164;51.202;0.278;2023-06-22T08:20:17;47;45;
77974;PMS5003;67164;51.202;0.278;2023-06-22T08:22:43;42;40;
77974;PMS5003;67164;51.202;0.278;2023-06-22T08:25:08;40;36;
77974;PMS5003;67164;51.202;0.278;2023-06-22T08:27:33;37;35;
77974;PMS5003;67164;51.202;0.278;2023-06-22T08:29:59;36;32;
77974;PMS5003;67164;51.202;0.278;2023-06-22T08:32:29;34;31;
77974;PMS5003;67164;51.202;0.278;2023-06-22T08:34:49;35;30;
77974;PMS5003;67164;51.202;0.278;2023-06-22T08:37:21;34;30;
77974;PMS5003;67164;51.202;0.278;2023-06-22T08:39:41;35;32;
77974;PMS5003;67164;51.202;0.278;2023-06-22T08:42:07;26;26;
77974;PMS5003;67164;51.202;0.278;2023-06-22T08:44:32;37;31;
77974;PMS5003;67164;51.202;0.278;2023-06-22T08:47:03;22;19;
77974;PMS5003;67164;51.202;0.278;2023-06-22T08:49:24;27;23;
77974;PMS5003;67164;51.202;0.278;2023-06-22T08:51:49;25;23;
77974;PMS5003;67164;51.202;0.278;2023-06-22T08:54:15;28;23;
77974;PMS5003;67164;51.202;0.278;2023-06-22T08:56:41;20;18;
77974;PMS5003;67164;51.202;0.278;2023-06-22T08:59:06;24;22;
77974;PMS5003;67164;51.202;0.278;2023-06-22T09:01:36;25;25;
77974;PMS5003;67164;51.202;0.278;2023-06-22T09:03:56;21;19;
77974;PMS5003;67164;51.202;0.278;2023-06-22T09:06:22;25;22;
77974;PMS5003;67164;51.202;0.278;2023-06-22T09:08:47;23;17;
77974;PMS5003;67164;51.202;0.278;2023-06-22T09:11:22;21;19;
77974;PMS5003;67164;51.202;0.278;2023-06-22T09:13:38;52;43;
77974;PMS5003;67164;51.202;0.278;2023-06-22T09:16:04;52;45;
77974;PMS5003;67164;51.202;0.278;2023-06-22T09:18:29;43;36;
77974;PMS5003;67164;51.202;0.278;2023-06-22T09:20:54;39;34;
77974;PMS5003;67164;51.202;0.278;2023-06-22T09:23:21;35;33;
77974;PMS5003;67164;51.202;0.278;2023-06-22T09:25:45;87;67;
77974;PMS5003;67164;51.202;0.278;2023-06-22T09:28:11;98;81;
77974;PMS5003;67164;51.202;0.278;2023-06-22T09:30:36;77;64;
77974;PMS5003;67164;51.202;0.278;2023-06-22T09:33:01;69;62;
77974;PMS5003;67164;51.202;0.278;2023-06-22T09:35:26;76;65;
77974;PMS5003;67164;51.202;0.278;2023-06-22T09:37:52;72;52;
77974;PMS5003;67164;51.202;0.278;2023-06-22T09:40:17;43;36;
77974;PMS5003;67164;51.202;0.278;2023-06-22T09:42:43;32;30;
77974;PMS5003;67164;51.202;0.278;2023-06-22T09:45:08;27;24;
77974;PMS5003;67164;51.202;0.278;2023-06-22T09:47:34;18;15;
77974;PMS5003;67164;51.202;0.278;2023-06-22T09:50:00;17;14;
77974;PMS5003;67164;51.202;0.278;2023-06-22T09:52:25;18;16;
77974;PMS5003;67164;51.202;0.278;2023-06-22T09:54:51;13;12;
77974;PMS5003;67164;51.202;0.278;2023-06-22T09:57:17;19;13;
77974;PMS5003;67164;51.202;0.278;2023-06-22T09:59:42;12;12;
77974;PMS5003;67164;51.202;0.278;2023-06-22T10:02:08;10;9;
77974;PMS5003;67164;51.202;0.278;2023-06-22T10:04:33;15;15;
77974;PMS5003;67164;51.202;0.278;2023-06-22T10:06:59;12;12;
77974;PMS5003;67164;51.202;0.278;2023-06-22T10:09:25;13;11;
77974;PMS5003;67164;51.202;0.278;2023-06-22T10:11:51;10;10;
77974;PMS5003;67164;51.202;0.278;2023-06-22T10:14:16;16;14;
77974;PMS5003;67164;51.202;0.278;2023-06-22T10:16:42;14;11;
77974;PMS5003;67164;51.202;0.278;2023-06-22T10:19:07;12;11;
77974;PMS5003;67164;51.202;0.278;2023-06-22T10:21:33;11;11;
77974;PMS5003;67164;51.202;0.278;2023-06-22T10:23:58;11;11;
77974;PMS5003;67164;51.202;0.278;2023-06-22T10:26:24;14;11;
77974;PMS5003;67164;51.202;0.278;2023-06-22T10:28:50;14;14;
77974;PMS5003;67164;51.202;0.278;2023-06-22T10:31:16;9;9;
77974;PMS5003;67164;51.202;0.278;2023-06-22T10:33:42;11;10;
77974;PMS5003;67164;51.202;0.278;2023-06-22T10:36:08;11;11;
77974;PMS5003;67164;51.202;0.278;2023-06-22T10:38:33;12;12;
77974;PMS5003;67164;51.202;0.278;2023-06-22T10:40:59;10;10;
77974;PMS5003;67164;51.202;0.278;2023-06-22T10:43:25;12;9;
77974;PMS5003;67164;51.202;0.278;2023-06-22T10:45:51;10;10;
77974;PMS5003;67164;51.202;0.278;2023-06-22T10:48:16;13;11;
77974;PMS5003;67164;51.202;0.278;2023-06-22T10:50:42;12;9;
77974;PMS5003;67164;51.202;0.278;2023-06-22T10:53:10;11;11;
77974;PMS5003;67164;51.202;0.278;2023-06-22T10:55:39;10;10;
77974;PMS5003;67164;51.202;0.278;2023-06-22T10:58:00;14;13;
77974;PMS5003;67164;51.202;0.278;2023-06-22T11:00:25;12;11;
77974;PMS5003;67164;51.202;0.278;2023-06-22T11:02:51;12;10;
77974;PMS5003;67164;51.202;0.278;2023-06-22T11:05:17;10;9;
77974;PMS5003;67164;51.202;0.278;2023-06-22T11:07:42;11;10;
77974;PMS5003;67164;51.202;0.278;2023-06-22T11:10:08;8;8;
77974;PMS5003;67164;51.202;0.278;2023-06-22T11:12:34;11;10;
77974;PMS5003;67164;51.202;0.278;2023-06-22T11:15:00;11;11;
77974;PMS5003;67164;51.202;0.278;2023-06-22T11:17:25;13;13;
77974;PMS5003;67164;51.202;0.278;2023-06-22T11:19:51;11;11;
77974;PMS5003;67164;51.202;0.278;2023-06-22T11:22:17;13;8;
77974;PMS5003;67164;51.202;0.278;2023-06-22T11:24:43;10;10;
77974;PMS5003;67164;51.202;0.278;2023-06-22T11:27:08;9;8;
77974;PMS5003;67164;51.202;0.278;2023-06-22T11:29:34;9;9;
77974;PMS5003;67164;51.202;0.278;2023-06-22T11:32:00;10;10;
77974;PMS5003;67164;51.202;0.278;2023-06-22T11:34:26;9;9;
77974;PMS5003;67164;51.202;0.278;2023-06-22T11:36:52;9;9;
77974;PMS5003;67164;51.202;0.278;2023-06-22T11:39:17;7;7;
77974;PMS5003;67164;51.202;0.278;2023-06-22T11:41:43;7;7;
77974;PMS5003;67164;51.202;0.278;2023-06-22T11:44:09;10;10;
77974;PMS5003;67164;51.202;0.278;2023-06-22T11:46:34;8;8;
77974;PMS5003;67164;51.202;0.278;2023-06-22T11:49:01;11;9;
77974;PMS5003;67164;51.202;0.278;2023-06-22T11:51:26;8;8;
77974;PMS5003;67164;51.202;0.278;2023-06-22T11:53:52;9;9;
77974;PMS5003;67164;51.202;0.278;2023-06-22T11:56:22;9;9;
77974;PMS5003;67164;51.202;0.278;2023-06-22T11:58:43;9;8;
77974;PMS5003;67164;51.202;0.278;2023-06-22T12:01:09;8;8;
77974;PMS5003;67164;51.202;0.278;2023-06-22T12:03:34;8;8;
77974;PMS5003;67164;51.202;0.278;2023-06-22T12:06:00;8;8;
77974;PMS5003;67164;51.202;0.278;2023-06-22T12:08:26;9;7;
77974;PMS5003;67164;51.202;0.278;2023-06-22T12:10:52;8;7;
77974;PMS5003;67164;51.202;0.278;2023-06-22T12:13:17;11;9;
77974;PMS5003;67164;51.202;0.278;2023-06-22T12:15:43;8;8;
77974;PMS5003;67164;51.202;0.278;2023-06-22T12:18:09;11;9;
77974;PMS5003;67164;51.202;0.278;2023-06-22T12:20:35;10;10;
77974;PMS5003;67164;51.202;0.278;2023-06-22T12:23:01;11;8;
77974;PMS5003;67164;51.202;0.278;2023-06-22T12:25:26;9;8;
77974;PMS5003;67164;51.202;0.278;2023-06-22T12:27:52;8;8;
77974;PMS5003;67164;51.202;0.278;2023-06-22T12:30:18;10;10;
77974;PMS5003;67164;51.202;0.278;2023-06-22T12:32:43;10;8;
77974;PMS5003;67164;51.202;0.278;2023-06-22T12:35:09;7;7;
77974;PMS5003;67164;51.202;0.278;2023-06-22T12:37:35;11;11;
77974;PMS5003;67164;51.202;0.278;2023-06-22T12:40:01;11;8;
77974;PMS5003;67164;51.202;0.278;2023-06-22T12:42:27;10;10;
77974;PMS5003;67164;51.202;0.278;2023-06-22T12:44:52;11;9;
77974;PMS5003;67164;51.202;0.278;2023-06-22T12:47:18;9;9;
77974;PMS5003;67164;51.202;0.278;2023-06-22T12:49:44;9;7;
77974;PMS5003;67164;51.202;0.278;2023-06-22T12:52:09;8;8;
77974;PMS5003;67164;51.202;0.278;2023-06-22T12:54:35;9;7;
77974;PMS5003;67164;51.202;0.278;2023-06-22T12:57:01;9;9;
77974;PMS5003;67164;51.202;0.278;2023-06-22T12:59:27;8;8;
77974;PMS5003;67164;51.202;0.278;2023-06-22T13:01:52;9;9;
77974;PMS5003;67164;51.202;0.278;2023-06-22T13:04:18;11;8;
77974;PMS5003;67164;51.202;0.278;2023-06-22T13:06:44;9;7;
77974;PMS5003;67164;51.202;0.278;2023-06-22T13:09:10;6;6;
77974;PMS5003;67164;51.202;0.278;2023-06-22T13:11:35;11;8;
77974;PMS5003;67164;51.202;0.278;2023-06-22T13:14:01;11;10;
77974;PMS5003;67164;51.202;0.278;2023-06-22T13:16:27;12;8;
77974;PMS5003;67164;51.202;0.278;2023-06-22T13:18:52;9;9;
77974;PMS5003;67164;51.202;0.278;2023-06-22T13:21:18;9;9;
77974;PMS5003;67164;51.202;0.278;2023-06-22T13:23:44;10;8;
77974;PMS5003;67164;51.202;0.278;2023-06-22T13:26:10;8;8;
77974;PMS5003;67164;51.202;0.278;2023-06-22T13:28:35;9;9;
77974;PMS5003;67164;51.202;0.278;2023-06-22T13:31:01;8;7;
77974;PMS5003;67164;51.202;0.278;2023-06-22T13:33:27;12;10;
77974;PMS5003;67164;51.202;0.278;2023-06-22T13:35:52;10;10;
77974;PMS5003;67164;51.202;0.278;2023-06-22T13:38:18;12;11;
77974;PMS5003;67164;51.202;0.278;2023-06-22T13:40:45;10;9;
77974;PMS5003;67164;51.202;0.278;2023-06-22T13:43:10;11;9;
77974;PMS5003;67164;51.202;0.278;2023-06-22T13:45:35;10;8;
77974;PMS5003;67164;51.202;0.278;2023-06-22T13:48:01;10;10;
77974;PMS5003;67164;51.202;0.278;2023-06-22T13:50:27;8;8;
77974;PMS5003;67164;51.202;0.278;2023-06-22T13:52:53;12;10;
77974;PMS5003;67164;51.202;0.278;2023-06-22T13:55:19;8;8;
77974;PMS5003;67164;51.202;0.278;2023-06-22T13:57:50;8;8;
77974;PMS5003;67164;51.202;0.278;2023-06-22T14:00:16;10;9;
77974;PMS5003;67164;51.202;0.278;2023-06-22T14:02:36;8;8;
77974;PMS5003;67164;51.202;0.278;2023-06-22T14:05:02;11;9;
77974;PMS5003;67164;51.202;0.278;2023-06-22T14:07:28;9;9;
77974;PMS5003;67164;51.202;0.278;2023-06-22T14:09:53;9;9;
77974;PMS5003;67164;51.202;0.278;2023-06-22T14:12:19;10;10;
77974;PMS5003;67164;51.202;0.278;2023-06-22T14:14:45;10;8;
77974;PMS5003;67164;51.202;0.278;2023-06-22T14:17:11;8;8;
77974;PMS5003;67164;51.202;0.278;2023-06-22T14:19:37;9;8;
77974;PMS5003;67164;51.202;0.278;2023-06-22T14:22:03;9;9;
77974;PMS5003;67164;51.202;0.278;2023-06-22T14:24:28;12;9;
77974;PMS5003;67164;51.202;0.278;2023-06-22T14:26:54;11;11;
77974;PMS5003;67164;51.202;0.278;2023-06-22T14:29:20;10;7;
77974;PMS5003;67164;51.202;0.278;2023-06-22T14:31:46;9;9;
77974;PMS5003;67164;51.202;0.278;2023-06-22T14:34:12;10;9;
77974;PMS5003;67164;51.202;0.278;2023-06-22T14:36:42;9;9;
77974;PMS5003;67164;51.202;0.278;2023-06-22T14:39:03;9;9;
77974;PMS5003;67164;51.202;0.278;2023-06-22T14:41:29;9;7;
77974;PMS5003;67164;51.202;0.278;2023-06-22T14:43:55;9;9;
77974;PMS5003;67164;51.202;0.278;2023-06-22T14:46:20;10;10;
77974;PMS5003;67164;51.202;0.278;2023-06-22T14:48:45;7;7;
77974;PMS5003;67164;51.202;0.278;2023-06-22T14:51:12;8;8;
77974;PMS5003;67164;51.202;0.278;2023-06-22T14:53:37;8;8;
77974;PMS5003;67164;51.202;0.278;2023-06-22T14:56:03;10;10;
77974;PMS5003;67164;51.202;0.278;2023-06-22T14:58:33;10;8;
77974;PMS5003;67164;51.202;0.278;2023-06-22T15:00:54;11;10;
77974;PMS5003;67164;51.202;0.278;2023-06-22T15:03:21;9;9;
77974;PMS5003;67164;51.202;0.278;2023-06-22T15:05:51;8;7;
77974;PMS5003;67164;51.202;0.278;2023-06-22T15:08:11;7;7;
77974;PMS5003;67164;51.202;0.278;2023-06-22T15:10:42;9;8;
77974;PMS5003;67164;51.202;0.278;2023-06-22T15:13:03;11;11;
77974;PMS5003;67164;51.202;0.278;2023-06-22T15:15:29;7;7;
77974;PMS5003;67164;51.202;0.278;2023-06-22T15:17:55;7;7;
77974;PMS5003;67164;51.202;0.278;2023-06-22T15:20:20;9;7;
77974;PMS5003;67164;51.202;0.278;2023-06-22T15:22:46;9;7;
77974;PMS5003;67164;51.202;0.278;2023-06-22T15:25:12;7;7;
77974;PMS5003;67164;51.202;0.278;2023-06-22T15:27:38;6;6;
77974;PMS5003;67164;51.202;0.278;2023-06-22T15:30:09;6;6;
77974;PMS5003;67164;51.202;0.278;2023-06-22T15:32:30;7;7;
77974;PMS5003;67164;51.202;0.278;2023-06-22T15:34:55;9;8;
77974;PMS5003;67164;51.202;0.278;2023-06-22T15:37:21;7;7;
77974;PMS5003;67164;51.202;0.278;2023-06-22T15:39:47;10;7;
77974;PMS5003;67164;51.202;0.278;2023-06-22T15:42:13;7;7;
77974;PMS5003;67164;51.202;0.278;2023-06-22T15:44:38;8;8;
77974;PMS5003;67164;51.202;0.278;2023-06-22T15:47:04;10;9;
77974;PMS5003;67164;51.202;0.278;2023-06-22T15:49:30;11;9;
77974;PMS5003;67164;51.202;0.278;2023-06-22T15:51:56;10;9;
77974;PMS5003;67164;51.202;0.278;2023-06-22T15:54:22;10;8;
77974;PMS5003;67164;51.202;0.278;2023-06-22T15:56:47;8;8;
77974;PMS5003;67164;51.202;0.278;2023-06-22T15:59:13;8;8;
77974;PMS5003;67164;51.202;0.278;2023-06-22T16:01:39;11;10;
77974;PMS5003;67164;51.202;0.278;2023-06-22T16:04:05;10;8;
77974;PMS5003;67164;51.202;0.278;2023-06-22T16:06:30;8;8;
77974;PMS5003;67164;51.202;0.278;2023-06-22T16:08:56;9;8;
77974;PMS5003;67164;51.202;0.278;2023-06-22T16:11:27;11;10;
77974;PMS5003;67164;51.202;0.278;2023-06-22T16:13:52;9;9;
77974;PMS5003;67164;51.202;0.278;2023-06-22T16:16:13;10;10;
77974;PMS5003;67164;51.202;0.278;2023-06-22T16:18:39;8;8;
77974;PMS5003;67164;51.202;0.278;2023-06-22T16:21:05;11;11;